createdAt,value
2023-03-06T00:01:05.627Z,98032.60
2023-03-06T00:03:33.831Z,98032.00
2023-03-06T00:06:02.335Z,98037.00
2023-03-06T00:08:30.126Z,98032.60
2023-03-06T00:10:58.090Z,98039.60
2023-03-06T00:13:29.956Z,98025.60
2023-03-06T00:16:03.512Z,98027.60
2023-03-06T00:18:31.385Z,98028.40
2023-03-06T00:20:59.346Z,98028.60
2023-03-06T00:23:27.660Z,98034.40
2023-03-06T00:25:55.365Z,98040.00
2023-03-06T00:28:23.193Z,98038.00
2023-03-06T00:30:51.046Z,98031.00
2023-03-06T00:33:18.747Z,98029.80
2023-03-06T00:35:46.640Z,98036.80
2023-03-06T00:38:14.400Z,98037.80
2023-03-06T00:40:42.191Z,98034.80
2023-03-06T00:43:10.296Z,98032.60
2023-03-06T00:45:38.189Z,98032.00
2023-03-06T00:48:06.484Z,98035.00
2023-03-06T00:50:35.309Z,98024.40
2023-03-06T00:53:03.286Z,98022.80
2023-03-06T00:55:32.917Z,98016.00
2023-03-06T00:58:00.756Z,98017.40
2023-03-06T01:00:28.458Z,98018.80
2023-03-06T01:02:56.162Z,98013.60
2023-03-06T01:05:24.795Z,98013.20
2023-03-06T01:07:52.562Z,98011.60
2023-03-06T01:10:20.475Z,98012.40
2023-03-06T01:12:48.205Z,98013.60
2023-03-06T01:15:16.191Z,98007.00
2023-03-06T01:17:44.135Z,98004.80
2023-03-06T01:20:17.679Z,98005.40
2023-03-06T01:22:45.479Z,98005.60
2023-03-06T01:25:13.421Z,97994.20
2023-03-06T01:27:41.422Z,97990.00
2023-03-06T01:30:11.535Z,97989.80
2023-03-06T01:32:39.503Z,97991.80
2023-03-06T01:35:07.929Z,97995.60
2023-03-06T01:37:37.199Z,97995.60
2023-03-06T01:40:08.312Z,97991.00
2023-03-06T01:42:36.189Z,97987.20
2023-03-06T01:45:30.160Z,97982.80
2023-03-06T01:47:57.984Z,97990.20
2023-03-06T01:50:25.900Z,97983.40
2023-03-06T01:52:58.842Z,97984.00
2023-03-06T01:55:32.955Z,97988.80
2023-03-06T01:58:06.758Z,97983.40
2023-03-06T02:00:34.844Z,97983.80
2023-03-06T02:03:29.849Z,97979.60
2023-03-06T02:05:59.631Z,97972.60
2023-03-06T02:08:29.055Z,97976.80
2023-03-06T02:11:08.887Z,97976.40
2023-03-06T02:13:38.189Z,97976.80
2023-03-06T02:16:09.422Z,97980.20
2023-03-06T02:18:38.984Z,97980.40
2023-03-06T02:21:20.335Z,97976.20
2023-03-06T02:24:04.860Z,97973.00
2023-03-06T02:26:36.066Z,97975.60
2023-03-06T02:29:04.017Z,97977.20
2023-03-06T02:31:34.479Z,97974.80
2023-03-06T02:34:14.030Z,97967.00
2023-03-06T02:36:48.405Z,97968.60
2023-03-06T02:39:23.732Z,97963.20
2023-03-06T02:41:51.835Z,97965.40
2023-03-06T02:44:20.254Z,97962.20
2023-03-06T02:46:48.064Z,97957.00
2023-03-06T02:49:15.812Z,97961.40
2023-03-06T02:51:43.549Z,97958.00
2023-03-06T02:54:11.332Z,97955.80
2023-03-06T02:56:39.043Z,97946.80
2023-03-06T02:59:06.735Z,97954.20
2023-03-06T03:01:34.623Z,97951.80
2023-03-06T03:04:02.399Z,97959.80
2023-03-06T03:06:30.234Z,97954.40
2023-03-06T03:08:57.978Z,97949.20
2023-03-06T03:11:25.669Z,97945.80
2023-03-06T03:13:53.466Z,97946.60
2023-03-06T03:16:21.417Z,97944.40
2023-03-06T03:18:51.049Z,97942.40
2023-03-06T03:21:19.297Z,97947.40
2023-03-06T03:23:47.016Z,97944.20
2023-03-06T03:26:19.346Z,97940.60
2023-03-06T03:28:47.252Z,97942.60
2023-03-06T03:31:15.054Z,97942.60
2023-03-06T03:33:42.923Z,97939.80
2023-03-06T03:36:10.791Z,97938.20
2023-03-06T03:38:38.527Z,97940.40
2023-03-06T03:41:06.296Z,97939.80
2023-03-06T03:43:33.973Z,97933.40
2023-03-06T03:46:01.863Z,97936.20
2023-03-06T03:48:29.598Z,97927.00
2023-03-06T03:51:09.240Z,97925.00
2023-03-06T03:53:37.471Z,97928.80
2023-03-06T03:56:05.734Z,97926.40
2023-03-06T03:58:33.704Z,97923.20
2023-03-06T04:01:01.774Z,97916.00
2023-03-06T04:03:29.635Z,97914.20
2023-03-06T04:05:58.056Z,97910.80
2023-03-06T04:08:26.945Z,97912.20
2023-03-06T04:10:55.205Z,97909.80
2023-03-06T04:13:24.102Z,97911.60
2023-03-06T04:15:54.575Z,97914.80
2023-03-06T04:18:23.885Z,97911.20
2023-03-06T04:20:52.218Z,97907.60
2023-03-06T04:23:20.644Z,97900.20
2023-03-06T04:25:48.275Z,97898.20
2023-03-06T04:28:16.377Z,97895.20
2023-03-06T04:30:43.968Z,97893.80
2023-03-06T04:33:12.087Z,97886.40
2023-03-06T04:35:39.725Z,97888.20
2023-03-06T04:38:07.419Z,97879.60
2023-03-06T04:40:37.761Z,97869.40
2023-03-06T04:43:06.444Z,97874.00
2023-03-06T04:45:35.247Z,97862.40
2023-03-06T04:48:03.224Z,97859.00
2023-03-06T04:50:32.600Z,97854.00
2023-03-06T04:53:02.445Z,97859.80
2023-03-06T04:55:30.685Z,97850.40
2023-03-06T04:57:58.963Z,97854.00
2023-03-06T05:00:31.887Z,97856.60
2023-03-06T05:03:01.651Z,97848.80
2023-03-06T05:05:29.873Z,97847.60
2023-03-06T05:07:57.650Z,97851.20
2023-03-06T05:10:25.553Z,97851.00
2023-03-06T05:12:53.227Z,97855.00
2023-03-06T05:15:21.187Z,97858.20
2023-03-06T05:17:48.840Z,97853.20
2023-03-06T05:20:17.716Z,97856.20
2023-03-06T05:22:45.388Z,97846.20
2023-03-06T05:25:13.265Z,97854.20
2023-03-06T05:27:41.190Z,97840.80
2023-03-06T05:30:13.546Z,97843.20
2023-03-06T05:32:41.486Z,97843.60
2023-03-06T05:35:21.399Z,97842.80
2023-03-06T05:37:49.404Z,97842.80
2023-03-06T05:40:18.559Z,97837.00
2023-03-06T05:42:46.419Z,97835.40
2023-03-06T05:45:14.298Z,97836.40
2023-03-06T05:47:42.076Z,97830.40
2023-03-06T05:50:11.073Z,97837.80
2023-03-06T05:52:39.889Z,97830.00
2023-03-06T05:55:11.909Z,97829.20
2023-03-06T05:57:39.776Z,97830.40
2023-03-06T06:00:09.702Z,97830.80
2023-03-06T06:02:37.407Z,97830.20
2023-03-06T06:05:05.644Z,97827.20
2023-03-06T06:07:33.328Z,97829.80
2023-03-06T06:10:03.628Z,97828.80
2023-03-06T06:12:32.314Z,97832.00
2023-03-06T06:15:00.120Z,97831.40
2023-03-06T06:17:27.867Z,97834.00
2023-03-06T06:19:56.031Z,97831.60
2023-03-06T06:22:24.686Z,97834.20
2023-03-06T06:24:52.463Z,97829.40
2023-03-06T06:27:20.166Z,97833.00
2023-03-06T06:29:52.430Z,97832.60
2023-03-06T06:32:20.233Z,97832.60
2023-03-06T06:34:48.138Z,97829.00
2023-03-06T06:37:16.463Z,97829.20
2023-03-06T06:39:44.206Z,97831.20
2023-03-06T06:42:29.873Z,97830.40
2023-03-06T06:44:59.298Z,97828.20
2023-03-06T06:47:26.970Z,97831.60
2023-03-06T06:49:56.212Z,97826.20
2023-03-06T06:52:25.512Z,97825.00
2023-03-06T06:54:53.549Z,97829.40
2023-03-06T06:57:21.864Z,97835.40
2023-03-06T06:59:52.284Z,97832.80
2023-03-06T07:02:21.756Z,97837.40
2023-03-06T07:05:02.929Z,97826.40
2023-03-06T07:07:35.962Z,97836.80
2023-03-06T07:10:13.922Z,97837.20
2023-03-06T07:12:42.095Z,97835.40
2023-03-06T07:15:14.880Z,97832.40
2023-03-06T07:17:42.832Z,97841.00
2023-03-06T07:20:12.697Z,97844.40
2023-03-06T07:22:50.369Z,97849.20
2023-03-06T07:25:19.821Z,97846.60
2023-03-06T07:27:53.303Z,97851.80
2023-03-06T07:30:25.244Z,97845.60
2023-03-06T07:32:55.729Z,97852.00
2023-03-06T07:35:24.918Z,97851.40
2023-03-06T07:37:53.193Z,97850.60
2023-03-06T07:40:21.585Z,97850.00
2023-03-06T07:42:49.562Z,97845.40
2023-03-06T07:45:17.529Z,97851.80
2023-03-06T07:47:45.379Z,97846.80
2023-03-06T07:50:13.295Z,97850.20
2023-03-06T07:52:41.156Z,97847.60
2023-03-06T07:55:10.866Z,97853.00
2023-03-06T07:57:39.293Z,97855.20
2023-03-06T08:00:13.253Z,97851.00
2023-03-06T08:02:42.548Z,97851.80
2023-03-06T08:05:15.017Z,97851.40
2023-03-06T08:07:45.107Z,97852.80
2023-03-06T08:10:15.467Z,97853.00
2023-03-06T08:12:43.192Z,97849.80
2023-03-06T08:15:13.012Z,97860.00
2023-03-06T08:17:40.902Z,97850.60
2023-03-06T08:20:10.423Z,97854.40
2023-03-06T08:22:38.646Z,97851.00
2023-03-06T08:25:08.499Z,97852.00
2023-03-06T08:27:37.277Z,97852.80
2023-03-06T08:30:07.236Z,97848.60
2023-03-06T08:32:37.465Z,97855.60
2023-03-06T08:35:06.176Z,97852.20
2023-03-06T08:37:34.228Z,97853.80
2023-03-06T08:40:04.597Z,97856.60
2023-03-06T08:42:32.785Z,97859.20
2023-03-06T08:45:00.448Z,97863.00
2023-03-06T08:47:28.511Z,97858.60
2023-03-06T08:49:56.172Z,97860.40
2023-03-06T08:52:23.781Z,97857.00
2023-03-06T08:54:51.527Z,97866.60
2023-03-06T08:57:19.278Z,97866.80
2023-03-06T08:59:47.079Z,97864.80
2023-03-06T09:02:15.272Z,97869.60
2023-03-06T09:04:43.084Z,97868.60
2023-03-06T09:07:10.854Z,97874.60
2023-03-06T09:09:38.602Z,97876.80
2023-03-06T09:12:06.644Z,97870.80
2023-03-06T09:14:34.406Z,97868.80
2023-03-06T09:17:02.101Z,97869.80
2023-03-06T09:19:29.764Z,97865.00
2023-03-06T09:21:59.559Z,97862.80
2023-03-06T09:24:27.905Z,97870.80
2023-03-06T09:26:55.666Z,97865.40
2023-03-06T09:29:23.399Z,97868.60
2023-03-06T09:31:51.129Z,97870.80
2023-03-06T09:34:19.018Z,97869.00
2023-03-06T09:36:56.652Z,97868.00
2023-03-06T09:39:27.201Z,97858.80
2023-03-06T09:41:58.253Z,97864.60
2023-03-06T09:44:30.479Z,97857.20
2023-03-06T09:47:15.179Z,97851.20
2023-03-06T09:50:16.325Z,97852.40
2023-03-06T09:53:24.712Z,97854.40
2023-03-06T09:56:02.130Z,97847.60
2023-03-06T09:58:37.615Z,97842.80
2023-03-06T10:01:31.702Z,97843.60
2023-03-06T10:04:31.796Z,97833.60
2023-03-06T10:07:29.396Z,97837.80
2023-03-06T10:10:06.035Z,97839.20
2023-03-06T10:12:48.273Z,97837.60
2023-03-06T10:15:29.051Z,97832.00
2023-03-06T10:17:57.592Z,97833.80
2023-03-06T10:20:29.264Z,97826.20
2023-03-06T10:23:22.014Z,97829.60
2023-03-06T10:26:33.760Z,97826.60
2023-03-06T10:29:31.082Z,97822.00
2023-03-06T10:32:17.036Z,97822.80
2023-03-06T10:34:45.773Z,97818.20
2023-03-06T10:37:20.890Z,97822.80
2023-03-06T10:39:59.817Z,97816.00
2023-03-06T10:42:28.977Z,97807.20
2023-03-06T10:45:11.099Z,97807.60
2023-03-06T10:47:40.218Z,97801.80
2023-03-06T10:50:28.430Z,97802.60
2023-03-06T10:53:16.412Z,97802.40
2023-03-06T10:55:53.975Z,97798.40
2023-03-06T10:58:31.651Z,97794.20
2023-03-06T11:01:20.768Z,97796.00
2023-03-06T11:03:48.835Z,97788.20
2023-03-06T11:06:37.183Z,97782.80
2023-03-06T11:09:24.947Z,97780.00
2023-03-06T11:12:13.055Z,97778.40
2023-03-06T11:14:40.824Z,97766.40
2023-03-06T11:17:28.588Z,97762.40
2023-03-06T11:20:14.920Z,97759.20
2023-03-06T11:23:08.318Z,97748.80
2023-03-06T11:26:18.174Z,97750.40
2023-03-06T11:29:14.586Z,97744.20
2023-03-06T11:31:58.422Z,97743.40
2023-03-06T11:34:44.133Z,97733.00
2023-03-06T11:37:32.236Z,97729.40
2023-03-06T11:40:09.407Z,97735.20
2023-03-06T11:43:14.714Z,97724.80
2023-03-06T11:46:10.689Z,97719.40
2023-03-06T11:48:52.133Z,97717.40
2023-03-06T11:51:33.073Z,97723.20
2023-03-06T11:54:02.320Z,97710.80
2023-03-06T11:56:45.261Z,97708.00
2023-03-06T12:00:01.592Z,97702.00
2023-03-06T12:03:02.439Z,97700.20
2023-03-06T12:05:46.577Z,97697.80
2023-03-06T12:08:43.040Z,97700.80
2023-03-06T12:11:30.655Z,97695.40
2023-03-06T12:14:15.621Z,97699.80
2023-03-06T12:16:58.532Z,97693.80
2023-03-06T12:19:52.111Z,97690.40
2023-03-06T12:22:36.602Z,97697.80
2023-03-06T12:25:31.414Z,97694.00
2023-03-06T12:28:32.659Z,97692.80
2023-03-06T12:31:28.533Z,97683.00
2023-03-06T12:34:19.111Z,97690.80
2023-03-06T12:37:25.224Z,97684.00
2023-03-06T12:40:35.955Z,97675.60
2023-03-06T12:43:58.066Z,97672.60
2023-03-06T12:46:28.439Z,97666.20
2023-03-06T12:49:31.992Z,97667.40
2023-03-06T12:52:04.333Z,97670.00
2023-03-06T12:54:38.705Z,97666.60
2023-03-06T12:57:09.444Z,97662.80
2023-03-06T12:59:44.657Z,97662.80
2023-03-06T13:03:14.910Z,97658.00
2023-03-06T13:06:13.900Z,97651.60
2023-03-06T13:09:17.550Z,97655.80
2023-03-06T13:12:25.367Z,97646.80
2023-03-06T13:15:00.699Z,97642.80
2023-03-06T13:17:39.097Z,97646.20
2023-03-06T13:20:35.485Z,97637.20
2023-03-06T13:23:29.297Z,97632.20
2023-03-06T13:25:59.985Z,97628.40
2023-03-06T13:28:52.265Z,97632.60
2023-03-06T13:31:29.094Z,97625.00
2023-03-06T13:33:59.725Z,97622.20
2023-03-06T13:36:34.631Z,97624.80
2023-03-06T13:39:12.750Z,97620.60
2023-03-06T13:41:44.520Z,97625.20
2023-03-06T13:44:24.602Z,97624.60
2023-03-06T13:47:30.329Z,97619.80
2023-03-06T13:49:59.753Z,97627.40
2023-03-06T13:52:39.450Z,97620.80
2023-03-06T13:55:26.086Z,97615.00
2023-03-06T13:58:26.473Z,97612.20
2023-03-06T14:01:46.637Z,97615.40
2023-03-06T14:04:44.016Z,97619.20
2023-03-06T14:07:20.640Z,97637.00
2023-03-06T14:09:59.746Z,97648.40
2023-03-06T14:12:38.087Z,97650.80
2023-03-06T14:15:23.155Z,97649.00
2023-03-06T14:18:23.981Z,97653.80
2023-03-06T14:21:01.502Z,97648.40
2023-03-06T14:23:42.614Z,97645.00
2023-03-06T14:26:21.919Z,97638.20
2023-03-06T14:28:52.566Z,97634.20
2023-03-06T14:31:24.595Z,97641.00
2023-03-06T14:33:58.451Z,97631.60
2023-03-06T14:36:33.955Z,97634.60
2023-03-06T14:39:12.078Z,97626.40
2023-03-06T14:41:40.020Z,97627.00
2023-03-06T14:44:26.552Z,97637.60
2023-03-06T14:46:57.593Z,97629.00
2023-03-06T14:49:26.936Z,97628.60
2023-03-06T14:52:00.597Z,97625.60
2023-03-06T14:54:37.426Z,97626.40
2023-03-06T14:57:20.220Z,97626.60
2023-03-06T14:59:59.400Z,97629.20
2023-03-06T15:02:32.842Z,97627.60
2023-03-06T15:05:12.405Z,97631.80
2023-03-06T15:07:42.787Z,97643.00
2023-03-06T15:10:30.547Z,97633.40
2023-03-06T15:13:23.864Z,97640.60
2023-03-06T15:15:58.049Z,97643.00
2023-03-06T15:18:39.087Z,97643.60
2023-03-06T15:21:10.836Z,97645.00
2023-03-06T15:23:42.364Z,97651.00
2023-03-06T15:26:29.542Z,97655.00
2023-03-06T15:29:10.958Z,97665.00
2023-03-06T15:31:42.302Z,97656.60
2023-03-06T15:34:09.973Z,97658.40
2023-03-06T15:36:44.030Z,97658.40
2023-03-06T15:39:36.718Z,97661.00
2023-03-06T15:42:16.185Z,97654.00
2023-03-06T15:44:53.102Z,97650.80
2023-03-06T15:47:22.969Z,97654.40
2023-03-06T15:49:53.076Z,97652.00
2023-03-06T15:52:22.892Z,97656.00
2023-03-06T15:54:50.712Z,97654.40
2023-03-06T15:57:30.964Z,97658.60
2023-03-06T16:00:00.686Z,97646.40
2023-03-06T16:02:28.445Z,97648.60
2023-03-06T16:04:56.206Z,97648.60
2023-03-06T16:07:24.096Z,97652.80
2023-03-06T16:09:52.236Z,97656.40
2023-03-06T16:12:22.652Z,97661.60
2023-03-06T16:14:50.404Z,97668.80
2023-03-06T16:17:18.216Z,97673.20
2023-03-06T16:19:45.984Z,97669.40
2023-03-06T16:22:14.498Z,97671.40
2023-03-06T16:24:43.280Z,97670.80
2023-03-06T16:27:23.490Z,97669.60
2023-03-06T16:29:51.165Z,97661.60
2023-03-06T16:32:18.899Z,97653.00
2023-03-06T16:34:46.659Z,97659.40
2023-03-06T16:37:14.447Z,97657.40
2023-03-06T16:39:42.272Z,97656.60
2023-03-06T16:42:10.187Z,97659.40
2023-03-06T16:44:38.046Z,97655.00
2023-03-06T16:47:05.953Z,97651.00
2023-03-06T16:49:33.917Z,97658.00
2023-03-06T16:52:01.969Z,97655.60
2023-03-06T16:54:29.707Z,97650.00
2023-03-06T16:56:57.558Z,97650.80
2023-03-06T16:59:25.623Z,97648.80
2023-03-06T17:01:53.387Z,97651.60
2023-03-06T17:04:21.173Z,97656.80
2023-03-06T17:06:49.101Z,97663.00
2023-03-06T17:09:17.198Z,97664.80
2023-03-06T17:11:46.832Z,97668.00
2023-03-06T17:14:14.678Z,97664.00
2023-03-06T17:16:42.773Z,97657.40
2023-03-06T17:19:15.321Z,97664.20
2023-03-06T17:21:44.322Z,97666.80
2023-03-06T17:24:12.083Z,97666.80
2023-03-06T17:26:40.208Z,97671.20
2023-03-06T17:29:09.237Z,97673.40
2023-03-06T17:31:37.020Z,97671.60
2023-03-06T17:34:04.985Z,97676.60
2023-03-06T17:36:33.104Z,97672.00
2023-03-06T17:39:03.349Z,97670.20
2023-03-06T17:41:32.799Z,97672.20
2023-03-06T17:44:01.789Z,97669.40
2023-03-06T17:46:31.749Z,97668.40
2023-03-06T17:48:59.804Z,97673.20
2023-03-06T17:51:27.682Z,97670.00
2023-03-06T17:53:55.644Z,97665.80
2023-03-06T17:56:23.522Z,97669.20
2023-03-06T17:58:51.381Z,97664.20
2023-03-06T18:01:23.366Z,97668.60
2023-03-06T18:03:51.433Z,97668.40
2023-03-06T18:06:22.093Z,97666.40
2023-03-06T18:08:52.845Z,97662.20
2023-03-06T18:11:21.969Z,97663.40
2023-03-06T18:13:49.830Z,97665.40
2023-03-06T18:16:21.339Z,97666.60
2023-03-06T18:18:56.323Z,97667.00
2023-03-06T18:21:24.721Z,97665.40
2023-03-06T18:23:52.771Z,97666.40
2023-03-06T18:26:27.499Z,97657.80
2023-03-06T18:28:58.923Z,97661.20
2023-03-06T18:31:34.051Z,97662.80
2023-03-06T18:34:10.664Z,97659.00
2023-03-06T18:36:40.142Z,97668.40
2023-03-06T18:39:11.949Z,97674.00
2023-03-06T18:41:40.457Z,97674.60
2023-03-06T18:44:08.639Z,97670.80
2023-03-06T18:46:38.604Z,97673.60
2023-03-06T18:49:06.784Z,97671.40
2023-03-06T18:51:35.443Z,97674.40
2023-03-06T18:54:05.496Z,97672.00
2023-03-06T18:56:34.947Z,97672.20
2023-03-06T18:59:09.662Z,97669.20
2023-03-06T19:01:46.051Z,97672.60
2023-03-06T19:04:15.106Z,97665.80
2023-03-06T19:06:43.356Z,97669.80
2023-03-06T19:09:11.461Z,97663.80
2023-03-06T19:11:39.186Z,97664.40
2023-03-06T19:14:07.580Z,97668.00
2023-03-06T19:16:35.498Z,97668.40
2023-03-06T19:19:03.565Z,97659.40
2023-03-06T19:21:31.408Z,97659.00
2023-03-06T19:23:59.214Z,97661.40
2023-03-06T19:26:28.068Z,97657.40
2023-03-06T19:28:55.958Z,97653.80
2023-03-06T19:31:27.505Z,97657.60
2023-03-06T19:33:56.802Z,97653.60
2023-03-06T19:36:28.707Z,97659.80
2023-03-06T19:39:02.555Z,97657.60
2023-03-06T19:41:30.803Z,97656.80
2023-03-06T19:44:02.447Z,97668.60
2023-03-06T19:46:31.664Z,97662.20
2023-03-06T19:49:02.711Z,97655.80
2023-03-06T19:51:30.658Z,97658.00
2023-03-06T19:53:58.426Z,97657.20
2023-03-06T19:56:29.076Z,97657.00
2023-03-06T19:58:57.360Z,97658.80
2023-03-06T20:01:28.075Z,97653.60
2023-03-06T20:03:59.173Z,97660.00
2023-03-06T20:06:33.626Z,97660.60
2023-03-06T20:09:06.177Z,97660.00
2023-03-06T20:11:34.393Z,97665.20
2023-03-06T20:14:05.242Z,97663.00
2023-03-06T20:16:34.367Z,97670.80
2023-03-06T20:19:02.875Z,97666.60
2023-03-06T20:21:37.535Z,97669.40
2023-03-06T20:24:08.726Z,97670.00
2023-03-06T20:26:38.021Z,97666.40
2023-03-06T20:29:05.794Z,97673.00
2023-03-06T20:31:33.645Z,97674.40
2023-03-06T20:34:02.125Z,97676.00
2023-03-06T20:36:36.903Z,97679.60
2023-03-06T20:39:09.007Z,97670.80
2023-03-06T20:41:37.082Z,97677.60
2023-03-06T20:44:08.199Z,97674.20
2023-03-06T20:46:36.318Z,97677.00
2023-03-06T20:49:05.089Z,97675.40
2023-03-06T20:51:38.991Z,97674.00
2023-03-06T20:54:10.102Z,97677.40
2023-03-06T20:56:39.774Z,97670.00
2023-03-06T20:59:11.518Z,97668.20
2023-03-06T21:01:43.076Z,97669.80
2023-03-06T21:04:13.991Z,97670.20
2023-03-06T21:06:46.578Z,97671.40
2023-03-06T21:09:17.381Z,97670.20
2023-03-06T21:11:46.259Z,97673.00
2023-03-06T21:14:15.140Z,97669.20
2023-03-06T21:16:43.994Z,97669.00
2023-03-06T21:19:11.955Z,97670.00
2023-03-06T21:21:39.788Z,97664.60
2023-03-06T21:24:08.128Z,97666.60
2023-03-06T21:26:36.166Z,97664.40
2023-03-06T21:29:04.759Z,97664.40
2023-03-06T21:31:33.595Z,97666.40
2023-03-06T21:34:04.836Z,97656.80
2023-03-06T21:36:34.058Z,97662.00
2023-03-06T21:39:01.895Z,97664.40
2023-03-06T21:41:30.571Z,97664.20
2023-03-06T21:44:04.672Z,97662.00
2023-03-06T21:46:33.236Z,97657.20
2023-03-06T21:49:04.269Z,97660.80
2023-03-06T21:51:32.619Z,97657.00
2023-03-06T21:54:00.397Z,97661.60
2023-03-06T21:56:28.508Z,97657.20
2023-03-06T21:58:57.968Z,97662.00
2023-03-06T22:01:29.189Z,97658.60
2023-03-06T22:03:58.409Z,97661.20
2023-03-06T22:06:28.804Z,97656.80
2023-03-06T22:08:58.825Z,97656.80
2023-03-06T22:11:31.413Z,97654.80
2023-03-06T22:13:59.446Z,97651.40
2023-03-06T22:16:27.457Z,97647.60
2023-03-06T22:18:55.580Z,97648.60
2023-03-06T22:21:23.825Z,97652.60
2023-03-06T22:23:54.325Z,97648.20
2023-03-06T22:26:22.140Z,97651.00
2023-03-06T22:28:49.945Z,97651.40
2023-03-06T22:31:28.402Z,97645.40
2023-03-06T22:34:00.228Z,97642.40
2023-03-06T22:36:30.622Z,97645.40
2023-03-06T22:39:04.462Z,97643.60
2023-03-06T22:41:32.425Z,97647.80
2023-03-06T22:44:02.181Z,97652.60
2023-03-06T22:46:31.717Z,97646.00
2023-03-06T22:49:01.931Z,97645.00
2023-03-06T22:51:29.770Z,97648.20
2023-03-06T22:53:58.090Z,97646.60
2023-03-06T22:56:25.793Z,97654.20
2023-03-06T22:58:53.579Z,97648.80
2023-03-06T23:01:25.325Z,97653.80
2023-03-06T23:03:56.248Z,97653.40
2023-03-06T23:06:40.049Z,97656.80
2023-03-06T23:09:20.727Z,97654.20
2023-03-06T23:11:49.879Z,97654.40
2023-03-06T23:14:19.554Z,97655.40
2023-03-06T23:16:47.295Z,97657.40
2023-03-06T23:19:15.422Z,97652.60
2023-03-06T23:21:43.475Z,97650.40
2023-03-06T23:24:11.209Z,97650.60
2023-03-06T23:26:40.616Z,97653.80
2023-03-06T23:29:08.293Z,97649.20
2023-03-06T23:31:36.065Z,97650.20
2023-03-06T23:34:04.388Z,97656.40
2023-03-06T23:36:32.369Z,97652.40
2023-03-06T23:39:00.051Z,97656.60
2023-03-06T23:41:28.545Z,97655.00
2023-03-06T23:43:56.318Z,97657.20
2023-03-06T23:46:24.172Z,97660.80
2023-03-06T23:48:52.551Z,97654.60
2023-03-06T23:51:22.620Z,97659.80
2023-03-06T23:54:10.510Z,97653.00
2023-03-06T23:56:39.237Z,97651.80
2023-03-06T23:59:06.992Z,97645.80
